createdAt,value
2016-08-09T00:00:35.519Z,1030.12
2016-08-09T00:01:35.517Z,1030.11
2016-08-09T00:02:35.517Z,1030.08
2016-08-09T00:03:35.518Z,1030.08
2016-08-09T00:04:35.519Z,1030.08
2016-08-09T00:05:35.516Z,1030.14
2016-08-09T00:06:35.513Z,1030.12
2016-08-09T00:07:35.511Z,1030.16
2016-08-09T00:08:35.512Z,1030.16
2016-08-09T00:09:35.510Z,1030.15
2016-08-09T00:10:35.505Z,1030.14
2016-08-09T00:11:35.508Z,1030.1
2016-08-09T00:12:36.256Z,1030.09
2016-08-09T00:13:35.501Z,1030.08
2016-08-09T00:14:35.502Z,1030.06
2016-08-09T00:15:35.500Z,1030.11
2016-08-09T00:16:36.600Z,1030.09
2016-08-09T00:17:35.498Z,1030.13
2016-08-09T00:18:35.498Z,1030.11
2016-08-09T00:19:35.493Z,1030.09
2016-08-09T00:20:35.492Z,1030.12
2016-08-09T00:21:35.490Z,1030.14
2016-08-09T00:22:35.491Z,1030.13
2016-08-09T00:23:35.639Z,1030.12
2016-08-09T00:24:35.486Z,1030.12
2016-08-09T00:25:35.484Z,1030.14
2016-08-09T00:26:35.485Z,1030.09
2016-08-09T00:27:35.480Z,1030.11
2016-08-09T00:28:36.400Z,1030.09
2016-08-09T00:29:35.480Z,1030.07
2016-08-09T00:30:35.478Z,1030.1
2016-08-09T00:31:35.476Z,1030.08
2016-08-09T00:32:35.475Z,1030.09
2016-08-09T00:33:35.474Z,1030.11
2016-08-09T00:34:35.474Z,1030.17
2016-08-09T00:35:35.471Z,1030.17
2016-08-09T00:36:35.589Z,1030.17
2016-08-09T00:37:35.467Z,1030.21
2016-08-09T00:38:36.787Z,1030.25
2016-08-09T00:39:35.853Z,1030.23
2016-08-09T00:40:36.736Z,1030.24
2016-08-09T00:41:35.461Z,1030.25
2016-08-09T00:42:35.459Z,1030.24
2016-08-09T00:43:35.458Z,1030.19
2016-08-09T00:44:35.457Z,1030.22
2016-08-09T00:45:35.457Z,1030.25
2016-08-09T00:46:35.452Z,1030.32
2016-08-09T00:47:35.451Z,1030.31
2016-08-09T00:48:35.453Z,1030.31
2016-08-09T00:49:35.449Z,1030.33
2016-08-09T00:50:35.447Z,1030.32
2016-08-09T00:51:35.447Z,1030.34
2016-08-09T00:52:35.444Z,1030.34
2016-08-09T00:53:35.442Z,1030.32
2016-08-09T00:54:35.442Z,1030.31
2016-08-09T00:55:35.442Z,1030.31
2016-08-09T00:56:35.437Z,1030.28
2016-08-09T00:57:35.435Z,1030.3
2016-08-09T00:58:35.435Z,1030.27
2016-08-09T00:59:35.435Z,1030.27
2016-08-09T01:00:35.432Z,1030.28
2016-08-09T01:01:35.431Z,1030.27
2016-08-09T01:02:35.431Z,1030.28
2016-08-09T01:03:35.426Z,1030.25
2016-08-09T01:04:35.425Z,1030.3
2016-08-09T01:05:35.425Z,1030.26
2016-08-09T01:06:35.421Z,1030.22
2016-08-09T01:07:35.420Z,1030.24
2016-08-09T01:08:35.418Z,1030.21
2016-08-09T01:09:35.415Z,1030.22
2016-08-09T01:10:35.416Z,1030.25
2016-08-09T01:11:35.415Z,1030.22
2016-08-09T01:12:35.410Z,1030.23
2016-08-09T01:13:35.408Z,1030.26
2016-08-09T01:14:35.407Z,1030.26
2016-08-09T01:15:35.406Z,1030.32
2016-08-09T01:16:35.404Z,1030.34
2016-08-09T01:17:35.403Z,1030.33
2016-08-09T01:18:35.402Z,1030.36
2016-08-09T01:19:35.400Z,1030.35
2016-08-09T01:20:35.400Z,1030.36
2016-08-09T01:21:35.395Z,1030.36
2016-08-09T01:22:35.395Z,1030.37
2016-08-09T01:23:35.392Z,1030.37
2016-08-09T01:24:35.392Z,1030.34
2016-08-09T01:25:35.390Z,1030.33
2016-08-09T01:26:35.388Z,1030.35
2016-08-09T01:27:35.634Z,1030.38
2016-08-09T01:28:35.385Z,1030.37
2016-08-09T01:29:35.381Z,1030.33
2016-08-09T01:30:35.381Z,1030.38
2016-08-09T01:31:35.379Z,1030.41
2016-08-09T01:32:35.379Z,1030.42
2016-08-09T01:33:35.375Z,1030.45
2016-08-09T01:34:35.375Z,1030.45
2016-08-09T01:35:35.370Z,1030.43
2016-08-09T01:36:35.370Z,1030.44
2016-08-09T01:38:35.367Z,1030.42
2016-08-09T01:39:35.366Z,1030.39
2016-08-09T01:40:35.362Z,1030.42
2016-08-09T01:41:35.410Z,1030.44
2016-08-09T01:42:35.359Z,1030.45
2016-08-09T01:43:35.360Z,1030.48
2016-08-09T01:44:35.359Z,1030.46
2016-08-09T01:45:35.354Z,1030.44
2016-08-09T01:46:35.355Z,1030.5
2016-08-09T01:47:36.158Z,1030.51
2016-08-09T01:48:35.748Z,1030.48
2016-08-09T01:49:35.346Z,1030.51
2016-08-09T01:50:35.347Z,1030.47
2016-08-09T01:51:35.345Z,1030.49
2016-08-09T01:52:35.340Z,1030.49
2016-08-09T01:53:35.344Z,1030.49
2016-08-09T01:54:35.338Z,1030.51
2016-08-09T01:55:35.338Z,1030.5
2016-08-09T01:56:35.332Z,1030.53
2016-08-09T01:57:35.335Z,1030.57
2016-08-09T01:58:36.016Z,1030.63
2016-08-09T01:59:35.329Z,1030.66
2016-08-09T02:00:35.325Z,1030.65
2016-08-09T02:01:35.324Z,1030.67
2016-08-09T02:02:35.324Z,1030.7
2016-08-09T02:03:35.321Z,1030.73
2016-08-09T02:04:35.318Z,1030.71
2016-08-09T02:05:35.318Z,1030.7
2016-08-09T02:06:35.315Z,1030.74
2016-08-09T02:07:35.314Z,1030.74
2016-08-09T02:08:35.312Z,1030.7
2016-08-09T02:09:35.312Z,1030.69
2016-08-09T02:10:35.309Z,1030.7
2016-08-09T02:11:35.305Z,1030.71
2016-08-09T02:12:35.304Z,1030.69
2016-08-09T02:13:35.303Z,1030.68
2016-08-09T02:14:35.299Z,1030.68
2016-08-09T02:15:35.296Z,1030.71
2016-08-09T02:16:35.296Z,1030.73
2016-08-09T02:17:35.292Z,1030.73
2016-08-09T02:18:35.292Z,1030.73
2016-08-09T02:19:35.287Z,1030.76
2016-08-09T02:20:35.288Z,1030.75
2016-08-09T02:21:35.287Z,1030.76
2016-08-09T02:22:35.283Z,1030.77
2016-08-09T02:23:35.280Z,1030.75
2016-08-09T02:24:35.279Z,1030.79
2016-08-09T02:25:35.276Z,1030.77
2016-08-09T02:26:35.274Z,1030.76
2016-08-09T02:27:35.273Z,1030.74
2016-08-09T02:28:35.269Z,1030.75
2016-08-09T02:29:35.267Z,1030.78
2016-08-09T02:30:35.265Z,1030.77
2016-08-09T02:31:35.264Z,1030.79
2016-08-09T02:32:35.262Z,1030.78
2016-08-09T02:33:35.258Z,1030.8
2016-08-09T02:34:35.257Z,1030.84
2016-08-09T02:35:35.255Z,1030.85
2016-08-09T02:36:35.251Z,1030.81
2016-08-09T02:37:35.252Z,1030.79
2016-08-09T02:38:35.249Z,1030.81
2016-08-09T02:39:35.246Z,1030.83
2016-08-09T02:40:35.243Z,1030.85
2016-08-09T02:41:35.242Z,1030.82
2016-08-09T02:42:35.238Z,1030.87
2016-08-09T02:43:35.236Z,1030.86
2016-08-09T02:44:35.485Z,1030.86
2016-08-09T02:45:35.683Z,1030.88
2016-08-09T02:46:35.229Z,1030.88
2016-08-09T02:47:35.225Z,1030.91
2016-08-09T02:48:35.223Z,1030.9
2016-08-09T02:49:35.222Z,1030.9
2016-08-09T02:50:35.219Z,1030.92
2016-08-09T02:51:35.216Z,1030.95
2016-08-09T02:52:35.213Z,1030.96
2016-08-09T02:53:35.220Z,1031
2016-08-09T02:54:35.208Z,1031
2016-08-09T02:55:35.209Z,1031
2016-08-09T02:56:35.854Z,1031.01
2016-08-09T02:57:35.201Z,1031.03
2016-08-09T02:58:35.200Z,1031.07
2016-08-09T02:59:35.199Z,1031.08
2016-08-09T03:00:35.194Z,1031.04
2016-08-09T03:01:35.200Z,1031.06
2016-08-09T03:02:35.191Z,1031.09
2016-08-09T03:03:35.186Z,1031.1
2016-08-09T03:04:35.184Z,1031.09
2016-08-09T03:05:35.181Z,1031.09
2016-08-09T03:06:35.182Z,1031.13
2016-08-09T03:07:36.362Z,1031.19
2016-08-09T03:08:35.175Z,1031.2
2016-08-09T03:09:35.640Z,1031.21
2016-08-09T03:10:35.170Z,1031.24
2016-08-09T03:11:35.167Z,1031.23
2016-08-09T03:12:35.165Z,1031.26
2016-08-09T03:13:35.200Z,1031.27
2016-08-09T03:14:36.686Z,1031.31
2016-08-09T03:15:35.157Z,1031.33
2016-08-09T03:16:35.152Z,1031.37
2016-08-09T03:17:35.150Z,1031.41
2016-08-09T03:18:35.197Z,1031.41
2016-08-09T03:19:35.144Z,1031.46
2016-08-09T03:20:35.147Z,1031.51
2016-08-09T03:21:35.138Z,1031.5
2016-08-09T03:22:35.137Z,1031.52
2016-08-09T03:23:35.132Z,1031.52
2016-08-09T03:24:35.129Z,1031.56
2016-08-09T03:25:35.126Z,1031.51
2016-08-09T03:26:35.123Z,1031.57
2016-08-09T03:27:35.120Z,1031.6
2016-08-09T03:28:35.120Z,1031.59
2016-08-09T03:29:35.118Z,1031.64
2016-08-09T03:30:35.111Z,1031.65
2016-08-09T03:31:35.110Z,1031.65
2016-08-09T03:33:35.106Z,1031.65
2016-08-09T03:34:35.100Z,1031.66
2016-08-09T03:35:35.096Z,1031.63
2016-08-09T03:36:35.095Z,1031.61
2016-08-09T03:37:35.091Z,1031.6
2016-08-09T03:38:35.086Z,1031.58
2016-08-09T03:39:35.083Z,1031.58
2016-08-09T03:40:35.081Z,1031.58
2016-08-09T03:41:35.079Z,1031.58
2016-08-09T03:42:35.074Z,1031.54
2016-08-09T03:43:35.079Z,1031.53
2016-08-09T03:44:35.070Z,1031.57
2016-08-09T03:45:35.067Z,1031.54
2016-08-09T03:46:35.063Z,1031.52
2016-08-09T03:48:35.056Z,1031.53
2016-08-09T03:49:35.054Z,1031.48
2016-08-09T03:50:35.049Z,1031.51
2016-08-09T03:51:35.046Z,1031.51
2016-08-09T03:52:35.044Z,1031.48
2016-08-09T03:53:35.040Z,1031.49
2016-08-09T03:54:35.038Z,1031.47
2016-08-09T03:55:35.038Z,1031.47
2016-08-09T03:56:35.032Z,1031.51
2016-08-09T03:57:35.027Z,1031.5
2016-08-09T03:58:35.024Z,1031.49
2016-08-09T03:59:35.021Z,1031.52
2016-08-09T04:00:35.027Z,1031.5
2016-08-09T04:01:35.015Z,1031.52
2016-08-09T04:03:35.009Z,1031.51
2016-08-09T04:05:35.855Z,1031.52
2016-08-09T04:06:34.999Z,1031.52
2016-08-09T04:07:34.997Z,1031.53
2016-08-09T04:08:34.992Z,1031.54
2016-08-09T04:09:34.988Z,1031.54
2016-08-09T04:10:34.986Z,1031.54
2016-08-09T04:11:35.394Z,1031.52
2016-08-09T04:12:34.980Z,1031.56
2016-08-09T04:13:35.078Z,1031.54
2016-08-09T04:14:35.022Z,1031.5
2016-08-09T04:15:34.972Z,1031.47
2016-08-09T04:16:35.066Z,1031.44
2016-08-09T04:18:34.961Z,1031.39
2016-08-09T04:19:34.956Z,1031.42
2016-08-09T04:20:34.952Z,1031.42
2016-08-09T04:21:34.949Z,1031.42
2016-08-09T04:22:34.948Z,1031.37
2016-08-09T04:23:35.633Z,1031.35
2016-08-09T04:24:34.940Z,1031.29
2016-08-09T04:25:35.343Z,1031.25
2016-08-09T04:27:35.899Z,1031.24
2016-08-09T04:28:34.930Z,1031.21
2016-08-09T04:29:34.926Z,1031.19
2016-08-09T04:30:34.921Z,1031.22
2016-08-09T04:31:34.918Z,1031.21
2016-08-09T04:32:34.916Z,1031.17
2016-08-09T04:33:34.996Z,1031.15
2016-08-09T04:34:34.911Z,1031.09
2016-08-09T04:35:34.906Z,1031.03
2016-08-09T04:36:35.441Z,1030.97
2016-08-09T04:37:34.900Z,1030.92
2016-08-09T04:38:34.898Z,1030.81
2016-08-09T04:39:34.894Z,1030.68
2016-08-09T04:40:34.997Z,1030.6
2016-08-09T04:41:34.887Z,1030.49
2016-08-09T04:42:34.886Z,1030.5
2016-08-09T04:43:34.882Z,1030.49
2016-08-09T04:44:34.879Z,1030.54
2016-08-09T04:45:34.876Z,1030.56
2016-08-09T04:46:34.874Z,1030.49
2016-08-09T04:48:34.872Z,1030.46
2016-08-09T04:49:34.867Z,1030.38
2016-08-09T04:50:34.867Z,1030.25
2016-08-09T04:51:34.862Z,1029.91
2016-08-09T04:52:34.861Z,1029.64
2016-08-09T04:53:34.858Z,1029.36
2016-08-09T04:54:34.857Z,1029.3
2016-08-09T04:55:34.854Z,1029.28
2016-08-09T04:56:34.853Z,1029.1
2016-08-09T04:57:34.853Z,1028.93
2016-08-09T04:58:34.855Z,1028.92
2016-08-09T04:59:34.847Z,1028.87
2016-08-09T05:00:34.854Z,1028.79
2016-08-09T05:01:34.846Z,1028.68
2016-08-09T05:02:34.844Z,1028.54
2016-08-09T05:03:34.841Z,1028.29
2016-08-09T05:04:34.840Z,1028.07
2016-08-09T05:05:34.840Z,1028.1
2016-08-09T05:06:34.842Z,1028.15
2016-08-09T05:07:34.839Z,1028.12
2016-08-09T05:08:34.839Z,1028.18
2016-08-09T05:09:34.839Z,1028.11
2016-08-09T05:10:34.837Z,1028.04
2016-08-09T05:11:34.838Z,1027.71
2016-08-09T05:12:34.839Z,1027.42
2016-08-09T05:13:34.838Z,1027.31
2016-08-09T05:14:34.840Z,1027.18
2016-08-09T05:15:34.843Z,1027.19
2016-08-09T05:16:34.841Z,1027.25
2016-08-09T05:17:34.842Z,1027.14
2016-08-09T05:18:34.844Z,1027.13
2016-08-09T05:19:34.845Z,1027.14
2016-08-09T05:20:34.846Z,1027.21
2016-08-09T05:21:35.548Z,1027.15
2016-08-09T05:22:34.953Z,1027.23
2016-08-09T05:24:34.854Z,1027.46
2016-08-09T05:25:34.860Z,1027.64
2016-08-09T05:26:34.861Z,1027.74
2016-08-09T05:27:34.865Z,1027.87
2016-08-09T05:28:34.864Z,1027.87
2016-08-09T05:29:34.867Z,1027.86
2016-08-09T05:30:35.119Z,1027.95
2016-08-09T05:31:34.872Z,1028.07
2016-08-09T05:32:35.323Z,1028.24
2016-08-09T05:33:34.875Z,1028.37
2016-08-09T05:34:34.880Z,1028.5
2016-08-09T05:35:34.879Z,1028.57
2016-08-09T05:36:34.883Z,1028.62
2016-08-09T05:37:34.883Z,1028.69
2016-08-09T05:38:34.885Z,1028.74
2016-08-09T05:39:34.890Z,1028.78
2016-08-09T05:40:34.891Z,1028.82
2016-08-09T05:41:34.893Z,1028.85
2016-08-09T05:42:34.896Z,1028.89
2016-08-09T05:43:34.896Z,1028.93
2016-08-09T05:44:34.896Z,1028.98
2016-08-09T05:45:34.898Z,1029.07
2016-08-09T05:46:34.900Z,1029.02
2016-08-09T05:47:34.901Z,1029.03
2016-08-09T05:48:34.903Z,1029.05
2016-08-09T05:49:34.905Z,1028.96
2016-08-09T05:50:36.192Z,1028.88
2016-08-09T05:51:34.905Z,1028.71
2016-08-09T05:52:34.906Z,1028.59
2016-08-09T05:53:34.905Z,1028.4
2016-08-09T05:54:34.909Z,1028.22
2016-08-09T05:55:34.908Z,1027.87
2016-08-09T05:56:34.909Z,1027.2
2016-08-09T05:57:34.977Z,1026.96
2016-08-09T05:58:34.915Z,1026.84
2016-08-09T05:59:34.916Z,1026.79
2016-08-09T06:00:34.917Z,1026.76
2016-08-09T06:01:34.918Z,1026.87
2016-08-09T06:02:34.920Z,1026.91
2016-08-09T06:03:34.923Z,1027.03
2016-08-09T06:04:34.925Z,1026.74
2016-08-09T06:05:34.928Z,1026.22
2016-08-09T06:06:34.933Z,1026.05
2016-08-09T06:07:34.934Z,1026.17
2016-08-09T06:08:34.937Z,1026.44
2016-08-09T06:09:34.942Z,1026.7
2016-08-09T06:10:34.947Z,1026.87
2016-08-09T06:11:34.948Z,1027.03
2016-08-09T06:12:34.953Z,1027.14
2016-08-09T06:13:34.957Z,1027.28
2016-08-09T06:14:34.965Z,1027.35
2016-08-09T06:15:34.966Z,1027.35
2016-08-09T06:16:34.966Z,1027.32
2016-08-09T06:17:34.970Z,1027.36
2016-08-09T06:18:34.977Z,1027.32
2016-08-09T06:19:34.978Z,1027.25
2016-08-09T06:20:34.984Z,1027.18
2016-08-09T06:21:34.987Z,1027.15
2016-08-09T06:22:34.995Z,1027.06
2016-08-09T06:23:34.998Z,1026.95
2016-08-09T06:24:35.003Z,1026.82
2016-08-09T06:25:35.006Z,1026.72
2016-08-09T06:26:35.008Z,1026.68
2016-08-09T06:27:35.014Z,1026.71
2016-08-09T06:28:35.018Z,1026.72
2016-08-09T06:29:35.026Z,1026.6
2016-08-09T06:30:35.026Z,1026.53
2016-08-09T06:31:35.034Z,1026.62
2016-08-09T06:32:35.037Z,1026.6
2016-08-09T06:33:35.043Z,1026.58
2016-08-09T06:34:35.054Z,1026.6
2016-08-09T06:35:35.052Z,1026.96
2016-08-09T06:36:35.062Z,1026.15
2016-08-09T06:37:35.065Z,1025.67
2016-08-09T06:38:35.072Z,1025.91
2016-08-09T06:39:35.184Z,1026.21
2016-08-09T06:40:35.833Z,1026.49
2016-08-09T06:41:35.088Z,1026.64
2016-08-09T06:42:35.097Z,1026.75
2016-08-09T06:43:35.102Z,1026.87
2016-08-09T06:44:35.361Z,1027.08
2016-08-09T06:45:35.114Z,1026.75
2016-08-09T06:46:35.123Z,1027.11
2016-08-09T06:47:35.128Z,1026.7
2016-08-09T06:48:35.584Z,1026.56
2016-08-09T06:49:35.492Z,1026.12
2016-08-09T06:52:35.164Z,1026.9
2016-08-09T06:53:35.169Z,1027.07
2016-08-09T06:54:35.178Z,1027.24
2016-08-09T06:55:35.185Z,1027.36
2016-08-09T06:56:35.192Z,1027.43
2016-08-09T06:57:35.199Z,1027.53
2016-08-09T06:58:35.210Z,1027.59
2016-08-09T06:59:35.213Z,1027.64
2016-08-09T07:00:35.219Z,1027.7
2016-08-09T07:01:35.229Z,1027.72
2016-08-09T07:02:35.963Z,1027.71
2016-08-09T07:03:35.239Z,1027.71
2016-08-09T07:04:35.244Z,1027.69
2016-08-09T07:05:35.252Z,1027.75
2016-08-09T07:06:35.260Z,1027.84
2016-08-09T07:07:35.268Z,1027.93
2016-08-09T07:08:35.274Z,1027.95
2016-08-09T07:09:35.281Z,1027.87
2016-08-09T07:10:35.285Z,1027.77
2016-08-09T07:11:35.620Z,1027.87
2016-08-09T07:12:35.303Z,1027.53
2016-08-09T07:13:35.314Z,1027.41
2016-08-09T07:14:35.884Z,1027.58
2016-08-09T07:15:35.323Z,1027.66
2016-08-09T07:16:35.328Z,1027.67
2016-08-09T07:17:35.332Z,1027.77
2016-08-09T07:18:35.338Z,1027.79
2016-08-09T07:19:35.345Z,1027.72
2016-08-09T07:20:35.353Z,1027.7
2016-08-09T07:21:35.357Z,1027.56
2016-08-09T07:22:35.363Z,1027.47
2016-08-09T07:23:35.372Z,1027.52
2016-08-09T07:24:35.377Z,1027.37
2016-08-09T07:25:35.383Z,1027.45
2016-08-09T07:26:35.389Z,1027.52
2016-08-09T07:27:35.396Z,1027.58
2016-08-09T07:28:35.402Z,1027.64
2016-08-09T07:29:35.409Z,1027.77
2016-08-09T07:30:35.416Z,1027.88
2016-08-09T07:31:35.422Z,1027.98
2016-08-09T07:32:35.430Z,1028.13
2016-08-09T07:33:35.433Z,1028.21
2016-08-09T07:34:35.443Z,1028.25
2016-08-09T07:35:35.449Z,1028.31
2016-08-09T07:36:35.456Z,1028.35
2016-08-09T07:37:35.460Z,1028.35
2016-08-09T07:38:35.466Z,1028.37
2016-08-09T07:39:35.478Z,1028.39
2016-08-09T07:40:35.478Z,1028.4
2016-08-09T07:41:35.486Z,1028.41
2016-08-09T07:42:35.493Z,1028.45
2016-08-09T07:43:35.494Z,1028.55
2016-08-09T07:44:35.501Z,1028.58
2016-08-09T07:45:35.508Z,1028.62
2016-08-09T07:46:35.513Z,1028.62
2016-08-09T07:47:35.520Z,1028.7
2016-08-09T07:48:35.527Z,1028.73
2016-08-09T07:49:35.529Z,1028.75
2016-08-09T07:50:35.535Z,1028.76
2016-08-09T07:51:35.539Z,1028.8
2016-08-09T07:52:35.546Z,1028.82
2016-08-09T07:53:35.552Z,1028.87
2016-08-09T07:54:35.555Z,1028.88
2016-08-09T07:55:35.562Z,1028.89
2016-08-09T07:56:35.564Z,1028.87
2016-08-09T07:58:36.028Z,1028.88
2016-08-09T07:59:35.579Z,1028.92
2016-08-09T08:00:35.592Z,1028.95
2016-08-09T08:01:35.590Z,1028.94
2016-08-09T08:02:35.597Z,1028.92
2016-08-09T08:03:35.600Z,1028.88
2016-08-09T08:04:35.605Z,1028.53
2016-08-09T08:05:35.609Z,1028.22
2016-08-09T08:06:36.166Z,1027.49
2016-08-09T08:08:35.629Z,1026.36
2016-08-09T08:09:35.631Z,1026.35
2016-08-09T08:10:35.637Z,1026.54
2016-08-09T08:11:35.740Z,1026.72
2016-08-09T08:12:35.648Z,1026.92
2016-08-09T08:13:35.654Z,1027.1
2016-08-09T08:14:35.663Z,1027.12
2016-08-09T08:15:35.673Z,1027.17
2016-08-09T08:16:35.671Z,1027.15
2016-08-09T08:17:35.679Z,1027.03
2016-08-09T08:19:35.691Z,1026.94
2016-08-09T08:20:35.697Z,1026.96
2016-08-09T08:21:36.225Z,1027.09
2016-08-09T08:22:36.589Z,1027.13
2016-08-09T08:23:35.716Z,1027.15
2016-08-09T08:24:35.728Z,1027.12
2016-08-09T08:25:35.731Z,1027.04
2016-08-09T08:26:35.739Z,1027.1
2016-08-09T08:27:35.745Z,1027.09
2016-08-09T08:28:35.753Z,1027.18
2016-08-09T08:29:35.759Z,1027.28
2016-08-09T08:30:36.436Z,1027.27
2016-08-09T08:31:35.774Z,1027.24
2016-08-09T08:32:35.781Z,1027.08
2016-08-09T08:34:35.795Z,1026.96
2016-08-09T08:35:35.803Z,1026.94
2016-08-09T08:36:35.808Z,1026.99
2016-08-09T08:37:35.816Z,1027
2016-08-09T08:38:35.825Z,1027.03
2016-08-09T08:39:35.832Z,1027.06
2016-08-09T08:40:35.836Z,1027.15
2016-08-09T08:41:35.843Z,1027.39
2016-08-09T08:42:35.851Z,1027.54
2016-08-09T08:43:35.858Z,1027.69
2016-08-09T08:44:35.868Z,1027.75
2016-08-09T08:45:35.874Z,1027.83
2016-08-09T08:46:35.882Z,1027.87
2016-08-09T08:47:35.888Z,1027.92
2016-08-09T08:49:35.904Z,1028
2016-08-09T08:50:35.907Z,1028.03
2016-08-09T08:51:35.912Z,1028.14
2016-08-09T08:52:35.918Z,1028.28
2016-08-09T08:53:35.927Z,1028.35
2016-08-09T08:54:35.933Z,1028.42
2016-08-09T08:55:35.942Z,1028.44
2016-08-09T08:56:35.944Z,1028.4
2016-08-09T08:57:35.951Z,1028.44
2016-08-09T08:58:35.958Z,1028.38
2016-08-09T08:59:35.964Z,1028.36
2016-08-09T09:00:35.969Z,1028.33
2016-08-09T09:01:35.976Z,1028.36
2016-08-09T09:02:35.985Z,1028.35
2016-08-09T09:03:35.990Z,1028.36
2016-08-09T09:04:35.996Z,1028.35
2016-08-09T09:05:36.000Z,1028.38
2016-08-09T09:06:36.006Z,1028.34
2016-08-09T09:07:36.011Z,1028.37
2016-08-09T09:08:36.019Z,1028.4
2016-08-09T09:09:36.026Z,1028.47
2016-08-09T09:10:36.030Z,1028.46
2016-08-09T09:11:36.035Z,1028.52
2016-08-09T09:12:36.040Z,1028.57
2016-08-09T09:13:36.049Z,1028.57
2016-08-09T09:14:36.054Z,1028.63
2016-08-09T09:15:37.512Z,1028.67
2016-08-09T09:16:36.063Z,1028.71
2016-08-09T09:17:36.072Z,1028.69
2016-08-09T09:18:36.078Z,1028.78
2016-08-09T09:19:36.082Z,1028.8
2016-08-09T09:20:36.087Z,1028.86
2016-08-09T09:21:36.094Z,1028.84
2016-08-09T09:22:36.098Z,1028.85
2016-08-09T09:23:36.102Z,1028.85
2016-08-09T09:24:36.657Z,1028.86
2016-08-09T09:25:36.112Z,1028.86
2016-08-09T09:26:36.117Z,1028.89
2016-08-09T09:27:36.122Z,1028.88
2016-08-09T09:28:36.831Z,1028.87
2016-08-09T09:29:36.134Z,1028.89
2016-08-09T09:30:36.138Z,1028.87
2016-08-09T09:31:36.144Z,1028.91
2016-08-09T09:32:36.150Z,1028.91
2016-08-09T09:33:36.156Z,1028.86
2016-08-09T09:34:36.159Z,1028.81
2016-08-09T09:35:36.164Z,1028.76
2016-08-09T09:36:36.168Z,1028.7
2016-08-09T09:37:36.807Z,1028.7
2016-08-09T09:38:36.178Z,1028.65
2016-08-09T09:39:36.184Z,1028.61
2016-08-09T09:40:36.190Z,1028.6
2016-08-09T09:41:36.193Z,1028.61
2016-08-09T09:42:36.199Z,1028.56
2016-08-09T09:43:36.203Z,1028.54
2016-08-09T09:44:36.208Z,1028.54
2016-08-09T09:45:36.214Z,1028.51
2016-08-09T09:46:36.221Z,1028.49
2016-08-09T09:47:36.225Z,1028.42
2016-08-09T09:48:36.228Z,1028.43
2016-08-09T09:49:36.237Z,1028.38
2016-08-09T09:50:36.240Z,1028.32
2016-08-09T09:51:36.247Z,1028.41
2016-08-09T09:52:36.250Z,1028.41
2016-08-09T09:53:36.257Z,1028.43
2016-08-09T09:54:36.263Z,1028.49
2016-08-09T09:55:36.265Z,1028.53
2016-08-09T09:56:36.270Z,1028.55
2016-08-09T09:57:36.277Z,1028.56
2016-08-09T09:58:36.282Z,1028.6
2016-08-09T09:59:36.287Z,1028.63
2016-08-09T10:00:36.292Z,1028.63
2016-08-09T10:01:36.297Z,1028.64
2016-08-09T10:02:36.301Z,1028.68
2016-08-09T10:03:36.309Z,1028.7
2016-08-09T10:04:36.312Z,1028.75
2016-08-09T10:05:36.319Z,1028.74
2016-08-09T10:06:36.321Z,1028.73
2016-08-09T10:07:36.327Z,1028.72
2016-08-09T10:08:36.335Z,1028.72
2016-08-09T10:09:36.338Z,1028.72
2016-08-09T10:10:36.342Z,1028.72
2016-08-09T10:11:36.348Z,1028.72
2016-08-09T10:12:36.355Z,1028.75
2016-08-09T10:13:36.356Z,1028.74
2016-08-09T10:14:36.364Z,1028.73
2016-08-09T10:15:36.370Z,1028.76
2016-08-09T10:16:36.373Z,1028.78
2016-08-09T10:17:36.379Z,1028.83
2016-08-09T10:18:36.382Z,1028.8
2016-08-09T10:19:36.387Z,1028.83
2016-08-09T10:20:36.391Z,1028.78
2016-08-09T10:21:36.399Z,1028.82
2016-08-09T10:22:36.404Z,1028.8
2016-08-09T10:23:36.409Z,1028.8
2016-08-09T10:24:36.412Z,1028.78
2016-08-09T10:25:36.418Z,1028.78
2016-08-09T10:26:36.420Z,1028.76
2016-08-09T10:27:36.424Z,1028.76
2016-08-09T10:28:36.432Z,1028.85
2016-08-09T10:29:36.433Z,1028.87
2016-08-09T10:30:36.441Z,1028.87
2016-08-09T10:31:36.445Z,1028.87
2016-08-09T10:32:36.447Z,1028.86
2016-08-09T10:33:37.251Z,1028.86
2016-08-09T10:34:36.458Z,1028.79
2016-08-09T10:37:36.468Z,1028.89
2016-08-09T10:38:36.474Z,1028.87
2016-08-09T10:39:36.479Z,1028.94
2016-08-09T10:40:36.481Z,1029.04
2016-08-09T10:41:36.489Z,1029.12
2016-08-09T10:42:37.190Z,1029.16
2016-08-09T10:43:36.493Z,1029.11
2016-08-09T10:45:36.503Z,1029.2
2016-08-09T10:46:36.505Z,1029.33
2016-08-09T10:47:36.510Z,1029.41
2016-08-09T10:48:36.517Z,1029.52
2016-08-09T10:49:36.518Z,1029.6
2016-08-09T10:50:36.523Z,1029.7
2016-08-09T10:51:36.526Z,1029.76
2016-08-09T10:52:36.531Z,1029.76
2016-08-09T10:53:36.534Z,1029.72
2016-08-09T10:54:36.536Z,1029.67
2016-08-09T10:55:37.779Z,1029.61
2016-08-09T10:56:36.544Z,1029.53
2016-08-09T10:57:36.557Z,1029.49
2016-08-09T10:58:36.549Z,1029.55
2016-08-09T10:59:36.556Z,1029.56
2016-08-09T11:00:36.766Z,1029.54
2016-08-09T11:01:36.561Z,1029.58
2016-08-09T11:02:36.564Z,1029.63
2016-08-09T11:03:36.569Z,1029.62
2016-08-09T11:04:36.955Z,1029.59
2016-08-09T11:05:36.571Z,1029.55
2016-08-09T11:06:36.577Z,1029.48
2016-08-09T11:07:36.580Z,1029.44
2016-08-09T11:08:37.346Z,1029.42
2016-08-09T11:09:36.584Z,1029.32
2016-08-09T11:10:36.590Z,1029.29
2016-08-09T11:11:36.592Z,1029.06
2016-08-09T11:12:36.593Z,1028.95
2016-08-09T11:13:36.597Z,1028.77
2016-08-09T11:14:36.603Z,1028.73
2016-08-09T11:15:36.608Z,1028.71
2016-08-09T11:16:36.606Z,1028.68
2016-08-09T11:17:36.611Z,1028.72
2016-08-09T11:18:36.613Z,1028.74
2016-08-09T11:19:36.615Z,1028.73
2016-08-09T11:20:36.623Z,1028.72
2016-08-09T11:21:36.622Z,1028.79
2016-08-09T11:22:36.627Z,1028.83
2016-08-09T11:23:36.629Z,1028.87
2016-08-09T11:24:36.633Z,1028.98
2016-08-09T11:25:36.638Z,1029.02
2016-08-09T11:26:36.640Z,1029.01
2016-08-09T11:27:36.642Z,1029.03
2016-08-09T11:28:36.651Z,1029.08
2016-08-09T11:29:36.648Z,1029.22
2016-08-09T11:30:36.653Z,1029.22
2016-08-09T11:31:36.655Z,1029.24
2016-08-09T11:32:36.662Z,1029.24
2016-08-09T11:33:36.662Z,1029.29
2016-08-09T11:34:36.666Z,1029.26
2016-08-09T11:35:36.669Z,1029.24
2016-08-09T11:36:36.683Z,1029.21
2016-08-09T11:37:36.675Z,1029.04
2016-08-09T11:38:36.677Z,1028.87
2016-08-09T11:39:36.680Z,1028.66
2016-08-09T11:40:36.683Z,1028.52
2016-08-09T11:41:36.686Z,1028.38
2016-08-09T11:42:36.691Z,1028.21
2016-08-09T11:43:36.701Z,1028.02
2016-08-09T11:44:36.696Z,1027.91
2016-08-09T11:45:36.703Z,1027.73
2016-08-09T11:46:36.703Z,1027.54
2016-08-09T11:47:36.708Z,1027.44
2016-08-09T11:48:36.711Z,1027.37
2016-08-09T11:49:36.715Z,1027.28
2016-08-09T11:50:36.719Z,1027.3
2016-08-09T11:52:36.727Z,1027.25
2016-08-09T11:53:36.739Z,1027.19
2016-08-09T11:54:36.739Z,1027.19
2016-08-09T11:55:37.042Z,1027.25
2016-08-09T11:56:36.748Z,1027.31
2016-08-09T11:57:36.805Z,1027.33
2016-08-09T11:58:36.759Z,1027.36
2016-08-09T11:59:36.760Z,1027.31
2016-08-09T12:00:36.816Z,1027.3
2016-08-09T12:01:36.776Z,1027.32
2016-08-09T12:02:36.778Z,1027.37
2016-08-09T12:03:36.783Z,1027.37
2016-08-09T12:05:37.092Z,1027.35
2016-08-09T12:06:36.802Z,1027.3
2016-08-09T12:07:36.803Z,1027.24
2016-08-09T12:08:36.807Z,1027.19
2016-08-09T12:09:36.813Z,1027.14
2016-08-09T12:10:36.817Z,1027.18
2016-08-09T12:11:36.826Z,1027.16
2016-08-09T12:12:36.829Z,1027.16
2016-08-09T12:14:37.546Z,1027.28
2016-08-09T12:15:36.849Z,1027.31
2016-08-09T12:16:36.854Z,1027.29
2016-08-09T12:17:36.855Z,1027.29
2016-08-09T12:18:36.863Z,1027.33
2016-08-09T12:19:36.869Z,1027.4
2016-08-09T12:20:36.874Z,1027.4
2016-08-09T12:21:36.879Z,1027.4
2016-08-09T12:22:37.561Z,1027.39
2016-08-09T12:23:36.928Z,1027.4
2016-08-09T12:24:38.245Z,1027.32
2016-08-09T12:25:36.899Z,1027.28
2016-08-09T12:26:36.908Z,1027.23
2016-08-09T12:27:36.986Z,1027.2
2016-08-09T12:28:36.916Z,1027.18
2016-08-09T12:29:36.923Z,1027.24
2016-08-09T12:30:36.928Z,1027.23